TimeCDT,TemperatureF,Dew PointF,Humidity,Sea Level PressureIn,VisibilityMPH,Wind Direction,Wind SpeedMPH,Gust SpeedMPH,PrecipitationIn,Events,Conditions,WindDirDegrees,DateUTC
12:13 AM,62.6,44.6,52,29.77,10.0,South,15.0,-,N/A,,Clear,190,2013-09-30 05:13:00
12:33 AM,62.6,44.6,52,29.76,10.0,South,12.7,-,N/A,,Clear,190,2013-09-30 05:33:00
12:52 AM,62.6,44.6,52,29.75,10.0,South,15.0,18.4,N/A,,Clear,190,2013-09-30 05:52:00
1:13 AM,60.8,44.6,55,29.75,10.0,South,13.8,18.4,N/A,,Clear,190,2013-09-30 06:13:00
1:33 AM,60.8,44.6,55,29.75,10.0,South,12.7,-,N/A,,Clear,180,2013-09-30 06:33:00
1:52 AM,60.8,44.6,55,29.75,10.0,South,13.8,-,N/A,,Clear,180,2013-09-30 06:52:00
2:08 AM,59.0,44.6,59,29.75,10.0,South,13.8,-,N/A,,Clear,180,2013-09-30 07:08:00
2:33 AM,59.0,44.6,59,29.73,-9999.0,South,15.0,-,N/A,,Clear,170,2013-09-30 07:33:00
2:52 AM,59.0,44.6,59,29.72,10.0,South,13.8,20.7,N/A,,Clear,180,2013-09-30 07:52:00
3:13 AM,59.0,44.6,59,29.72,10.0,South,15.0,20.7,N/A,,Clear,180,2013-09-30 08:13:00
3:32 AM,59.0,44.6,59,29.71,10.0,South,15.0,-,N/A,,Clear,180,2013-09-30 08:32:00
3:53 AM,59.0,44.6,59,29.70,10.0,South,13.8,19.6,N/A,,Clear,180,2013-09-30 08:53:00
4:13 AM,59.0,44.6,59,29.70,10.0,South,12.7,-,N/A,,Clear,180,2013-09-30 09:13:00
4:32 AM,57.2,46.4,67,29.70,10.0,South,13.8,-,N/A,,Clear,170,2013-09-30 09:32:00
4:53 AM,57.2,46.4,67,29.69,10.0,South,12.7,-,N/A,,Clear,180,2013-09-30 09:53:00
5:13 AM,57.2,46.4,67,29.69,10.0,South,13.8,-,N/A,,Clear,180,2013-09-30 10:13:00
5:31 AM,57.2,46.4,67,29.68,10.0,South,11.5,-,N/A,,Clear,180,2013-09-30 10:31:00
5:53 AM,57.2,46.4,67,29.68,10.0,South,12.7,-,N/A,,Clear,170,2013-09-30 10:53:00
6:13 AM,55.4,46.4,72,29.69,10.0,South,5.8,-,N/A,,Clear,180,2013-09-30 11:13:00
6:33 AM,55.4,46.4,72,29.69,10.0,South,8.1,-,N/A,,Clear,180,2013-09-30 11:33:00
6:52 AM,55.4,46.4,72,29.68,10.0,South,9.2,-,N/A,,Clear,170,2013-09-30 11:52:00
7:13 AM,55.4,46.4,72,29.68,10.0,South,10.4,-,N/A,,Clear,170,2013-09-30 12:13:00
7:33 AM,55.4,46.4,72,29.68,10.0,South,12.7,-,N/A,,Clear,170,2013-09-30 12:33:00
7:53 AM,55.4,46.4,72,29.67,10.0,South,13.8,-,N/A,,Clear,170,2013-09-30 12:53:00
8:13 AM,57.2,48.2,72,29.67,10.0,South,12.7,-,N/A,,Clear,170,2013-09-30 13:13:00
8:32 AM,57.2,48.2,72,29.67,10.0,South,13.8,-,N/A,,Clear,180,2013-09-30 13:32:00
8:53 AM,59.0,48.2,67,29.67,10.0,South,12.7,18.4,N/A,,Clear,180,2013-09-30 13:53:00
9:13 AM,60.8,48.2,63,29.66,10.0,South,12.7,-,N/A,,Clear,190,2013-09-30 14:13:00
9:32 AM,60.8,48.2,63,29.67,10.0,South,11.5,-,N/A,,Clear,190,2013-09-30 14:32:00
9:53 AM,62.6,48.2,59,29.68,10.0,South,9.2,-,N/A,,Clear,170,2013-09-30 14:53:00
10:13 AM,64.4,48.2,56,29.67,10.0,South,9.2,-,N/A,,Clear,190,2013-09-30 15:13:00
10:33 AM,66.2,48.2,52,29.66,10.0,South,9.2,-,N/A,,Clear,180,2013-09-30 15:33:00
10:53 AM,68.0,48.2,49,29.66,10.0,South,11.5,-,N/A,,Clear,190,2013-09-30 15:53:00
11:12 AM,69.8,48.2,46,29.66,10.0,SW,13.8,18.4,N/A,,Clear,220,2013-09-30 16:12:00
11:33 AM,69.8,48.2,46,29.66,10.0,South,13.8,18.4,N/A,,Clear,190,2013-09-30 16:33:00
11:53 AM,71.6,48.2,43,29.65,10.0,South,15.0,19.6,N/A,,Clear,180,2013-09-30 16:53:00
12:12 PM,73.4,48.2,41,29.65,10.0,South,15.0,18.4,N/A,,Clear,190,2013-09-30 17:12:00
12:33 PM,73.4,48.2,41,29.65,10.0,South,12.7,-,N/A,,Clear,190,2013-09-30 17:33:00
12:53 PM,75.2,48.2,38,29.65,10.0,SSW,11.5,20.7,N/A,,Clear,200,2013-09-30 17:53:00
1:12 PM,75.2,48.2,38,29.64,10.0,SSW,10.4,-,N/A,,Clear,210,2013-09-30 18:12:00
1:33 PM,75.2,48.2,38,29.64,10.0,SSW,11.5,19.6,N/A,,Clear,200,2013-09-30 18:33:00
1:53 PM,77.0,48.2,36,29.62,10.0,SW,16.1,-,N/A,,Clear,220,2013-09-30 18:53:00
2:12 PM,78.8,48.2,34,29.62,10.0,SSW,15.0,24.2,N/A,,Clear,210,2013-09-30 19:12:00
2:33 PM,78.8,48.2,34,29.61,10.0,SSW,15.0,20.7,N/A,,Clear,210,2013-09-30 19:33:00
2:53 PM,78.8,48.2,34,29.61,10.0,SW,17.3,23.0,N/A,,Clear,220,2013-09-30 19:53:00
3:12 PM,78.8,48.2,34,29.60,10.0,SSW,11.5,21.9,N/A,,Clear,200,2013-09-30 20:12:00
3:33 PM,80.6,48.2,32,29.59,10.0,SSW,19.6,-,N/A,,Clear,200,2013-09-30 20:33:00
3:53 PM,80.6,48.2,32,29.58,10.0,SSW,19.6,28.8,N/A,,Clear,200,2013-09-30 20:53:00
4:12 PM,80.6,48.2,32,29.59,10.0,SSW,13.8,25.3,N/A,,Clear,210,2013-09-30 21:12:00
4:33 PM,80.6,48.2,32,29.58,10.0,SSW,15.0,-,N/A,,Clear,200,2013-09-30 21:33:00
4:53 PM,82.4,48.2,30,29.58,10.0,SSW,15.0,21.9,N/A,,Clear,210,2013-09-30 21:53:00
5:12 PM,82.4,48.2,30,29.58,10.0,SW,13.8,-,N/A,,Clear,220,2013-09-30 22:12:00
5:33 PM,80.6,48.2,32,29.58,10.0,SW,13.8,18.4,N/A,,Clear,220,2013-09-30 22:33:00
5:53 PM,80.6,48.2,32,29.59,10.0,SSW,12.7,20.7,N/A,,Clear,210,2013-09-30 22:53:00
6:12 PM,78.8,48.2,34,29.59,10.0,SSW,9.2,-,N/A,,Clear,210,2013-09-30 23:12:00
6:33 PM,77.0,48.2,36,29.60,10.0,SSW,10.4,-,N/A,,Clear,200,2013-09-30 23:33:00
6:53 PM,75.2,48.2,38,29.61,10.0,SSW,10.4,-,N/A,,Clear,200,2013-09-30 23:53:00
7:12 PM,73.4,48.2,41,29.60,10.0,South,8.1,-,N/A,,Clear,190,2013-10-01 00:12:00
7:33 PM,73.4,48.2,41,29.61,10.0,South,8.1,-,N/A,,Clear,190,2013-10-01 00:33:00
7:53 PM,71.6,48.2,43,29.61,10.0,South,8.1,-,N/A,,Clear,180,2013-10-01 00:53:00
8:12 PM,69.8,48.2,46,29.62,10.0,South,9.2,-,N/A,,Clear,180,2013-10-01 01:12:00
8:33 PM,69.8,50.0,49,29.62,10.0,South,9.2,-,N/A,,Clear,180,2013-10-01 01:33:00
8:52 PM,68.0,50.0,52,29.63,10.0,South,10.4,-,N/A,,Clear,180,2013-10-01 01:52:00
9:13 PM,68.0,50.0,52,29.62,10.0,South,10.4,-,N/A,,Clear,180,2013-10-01 02:13:00
9:33 PM,68.0,51.8,56,29.62,10.0,South,10.4,-,N/A,,Clear,180,2013-10-01 02:33:00
9:52 PM,68.0,51.8,56,29.62,10.0,South,11.5,-,N/A,,Clear,180,2013-10-01 02:52:00
10:13 PM,66.2,51.8,60,29.63,10.0,South,11.5,-,N/A,,Clear,180,2013-10-01 03:13:00
10:33 PM,66.2,51.8,60,29.62,10.0,South,11.5,-,N/A,,Clear,180,2013-10-01 03:33:00
10:52 PM,66.2,51.8,60,29.62,10.0,South,11.5,-,N/A,,Clear,180,2013-10-01 03:52:00
11:13 PM,66.2,51.8,60,29.62,10.0,South,11.5,-,N/A,,Clear,180,2013-10-01 04:13:00
11:33 PM,66.2,51.8,60,29.62,10.0,South,11.5,18.4,N/A,,Clear,190,2013-10-01 04:33:00
11:52 PM,66.2,51.8,60,29.62,10.0,South,12.7,-,N/A,,Clear,190,2013-10-01 04:52:00